sensor_id;sensor_type;location;lat;lon;timestamp;temperature;humidity
18297;DHT22;18066;52.106;5.534;2023-01-26T00:01:51;1.90;99.90
18297;DHT22;18066;52.106;5.534;2023-01-26T00:04:19;1.70;99.90
18297;DHT22;18066;52.106;5.534;2023-01-26T00:06:46;1.80;99.90
18297;DHT22;18066;52.106;5.534;2023-01-26T00:09:13;1.80;99.90
18297;DHT22;18066;52.106;5.534;2023-01-26T00:11:40;1.70;99.90
18297;DHT22;18066;52.106;5.534;2023-01-26T00:14:07;1.70;99.90
18297;DHT22;18066;52.106;5.534;2023-01-26T00:16:36;1.70;99.90
18297;DHT22;18066;52.106;5.534;2023-01-26T00:19:03;1.70;99.90
18297;DHT22;18066;52.106;5.534;2023-01-26T00:21:29;1.70;99.90
18297;DHT22;18066;52.106;5.534;2023-01-26T00:23:57;1.70;99.90
18297;DHT22;18066;52.106;5.534;2023-01-26T00:26:25;1.70;99.90
18297;DHT22;18066;52.106;5.534;2023-01-26T00:28:53;1.70;99.90
18297;DHT22;18066;52.106;5.534;2023-01-26T00:31:21;1.70;99.90
18297;DHT22;18066;52.106;5.534;2023-01-26T00:33:50;1.80;99.90
18297;DHT22;18066;52.106;5.534;2023-01-26T00:36:18;1.80;99.90
18297;DHT22;18066;52.106;5.534;2023-01-26T00:38:45;1.90;99.90
18297;DHT22;18066;52.106;5.534;2023-01-26T00:41:12;1.90;99.90
18297;DHT22;18066;52.106;5.534;2023-01-26T00:43:59;1.90;99.90
18297;DHT22;18066;52.106;5.534;2023-01-26T00:46:26;1.90;99.90
18297;DHT22;18066;52.106;5.534;2023-01-26T00:48:55;1.90;99.90
18297;DHT22;18066;52.106;5.534;2023-01-26T00:51:22;2.00;99.90
18297;DHT22;18066;52.106;5.534;2023-01-26T00:53:48;2.00;99.90
18297;DHT22;18066;52.106;5.534;2023-01-26T00:56:15;2.10;99.90
18297;DHT22;18066;52.106;5.534;2023-01-26T00:58:42;2.10;99.90
18297;DHT22;18066;52.106;5.534;2023-01-26T01:01:10;2.00;99.90
18297;DHT22;18066;52.106;5.534;2023-01-26T01:03:37;1.90;99.90
18297;DHT22;18066;52.106;5.534;2023-01-26T01:06:05;1.90;99.90
18297;DHT22;18066;52.106;5.534;2023-01-26T01:08:32;2.10;99.90
18297;DHT22;18066;52.106;5.534;2023-01-26T01:11:04;2.10;99.90
18297;DHT22;18066;52.106;5.534;2023-01-26T01:13:31;2.10;99.90
18297;DHT22;18066;52.106;5.534;2023-01-26T01:15:57;2.00;99.90
18297;DHT22;18066;52.106;5.534;2023-01-26T01:18:24;2.10;99.90
18297;DHT22;18066;52.106;5.534;2023-01-26T01:20:51;2.10;99.90
18297;DHT22;18066;52.106;5.534;2023-01-26T01:23:19;2.10;99.90
18297;DHT22;18066;52.106;5.534;2023-01-26T01:25:46;2.20;99.90
18297;DHT22;18066;52.106;5.534;2023-01-26T01:28:13;2.10;99.90
18297;DHT22;18066;52.106;5.534;2023-01-26T01:30:40;2.10;99.90
18297;DHT22;18066;52.106;5.534;2023-01-26T01:33:07;2.10;99.90
18297;DHT22;18066;52.106;5.534;2023-01-26T01:35:33;2.10;99.90
18297;DHT22;18066;52.106;5.534;2023-01-26T01:38:01;2.10;99.90
18297;DHT22;18066;52.106;5.534;2023-01-26T01:40:29;2.00;99.90
18297;DHT22;18066;52.106;5.534;2023-01-26T01:42:56;2.10;99.90
18297;DHT22;18066;52.106;5.534;2023-01-26T01:45:41;2.10;99.90
18297;DHT22;18066;52.106;5.534;2023-01-26T01:48:14;2.20;99.90
18297;DHT22;18066;52.106;5.534;2023-01-26T01:50:43;2.20;99.90
18297;DHT22;18066;52.106;5.534;2023-01-26T01:53:12;2.20;99.90
18297;DHT22;18066;52.106;5.534;2023-01-26T01:55:43;2.20;99.90
18297;DHT22;18066;52.106;5.534;2023-01-26T01:58:11;2.20;99.90
18297;DHT22;18066;52.106;5.534;2023-01-26T02:00:38;2.10;99.90
18297;DHT22;18066;52.106;5.534;2023-01-26T02:03:07;2.00;99.90
18297;DHT22;18066;52.106;5.534;2023-01-26T02:05:42;2.10;99.90
18297;DHT22;18066;52.106;5.534;2023-01-26T02:08:12;2.10;99.90
18297;DHT22;18066;52.106;5.534;2023-01-26T02:10:43;2.10;99.90
18297;DHT22;18066;52.106;5.534;2023-01-26T02:13:11;2.20;99.90
18297;DHT22;18066;52.106;5.534;2023-01-26T02:15:39;2.20;99.90
18297;DHT22;18066;52.106;5.534;2023-01-26T02:18:05;2.10;99.90
18297;DHT22;18066;52.106;5.534;2023-01-26T02:20:42;2.20;99.90
18297;DHT22;18066;52.106;5.534;2023-01-26T02:23:18;2.10;99.90
18297;DHT22;18066;52.106;5.534;2023-01-26T02:25:58;2.30;99.90
18297;DHT22;18066;52.106;5.534;2023-01-26T02:28:26;2.20;99.90
18297;DHT22;18066;52.106;5.534;2023-01-26T02:30:53;2.20;99.90
18297;DHT22;18066;52.106;5.534;2023-01-26T02:33:23;2.30;99.90
18297;DHT22;18066;52.106;5.534;2023-01-26T02:35:50;2.30;99.90
18297;DHT22;18066;52.106;5.534;2023-01-26T02:38:19;2.10;99.90
18297;DHT22;18066;52.106;5.534;2023-01-26T02:40:50;2.00;99.90
18297;DHT22;18066;52.106;5.534;2023-01-26T02:43:20;1.90;99.90
18297;DHT22;18066;52.106;5.534;2023-01-26T02:45:48;1.90;99.90
18297;DHT22;18066;52.106;5.534;2023-01-26T02:48:15;1.90;99.90
18297;DHT22;18066;52.106;5.534;2023-01-26T02:51:02;1.90;99.90
18297;DHT22;18066;52.106;5.534;2023-01-26T02:53:29;1.90;99.90
18297;DHT22;18066;52.106;5.534;2023-01-26T02:55:56;1.80;99.90
18297;DHT22;18066;52.106;5.534;2023-01-26T02:58:23;1.70;99.90
18297;DHT22;18066;52.106;5.534;2023-01-26T03:00:50;1.70;99.90
18297;DHT22;18066;52.106;5.534;2023-01-26T03:03:19;1.70;99.90
18297;DHT22;18066;52.106;5.534;2023-01-26T03:05:47;1.70;99.90
18297;DHT22;18066;52.106;5.534;2023-01-26T03:08:14;1.70;99.90
18297;DHT22;18066;52.106;5.534;2023-01-26T03:10:41;1.70;99.90
18297;DHT22;18066;52.106;5.534;2023-01-26T03:13:08;1.70;99.90
18297;DHT22;18066;52.106;5.534;2023-01-26T03:15:37;1.70;99.90
18297;DHT22;18066;52.106;5.534;2023-01-26T03:18:14;1.70;99.90
18297;DHT22;18066;52.106;5.534;2023-01-26T03:21:00;1.70;99.90
18297;DHT22;18066;52.106;5.534;2023-01-26T03:23:45;1.70;99.90
18297;DHT22;18066;52.106;5.534;2023-01-26T03:26:29;1.80;99.90
18297;DHT22;18066;52.106;5.534;2023-01-26T03:29:13;1.90;99.90
18297;DHT22;18066;52.106;5.534;2023-01-26T03:31:41;1.90;99.90
18297;DHT22;18066;52.106;5.534;2023-01-26T03:34:08;2.00;99.90
18297;DHT22;18066;52.106;5.534;2023-01-26T03:36:35;2.00;99.90
18297;DHT22;18066;52.106;5.534;2023-01-26T03:39:03;2.00;99.90
18297;DHT22;18066;52.106;5.534;2023-01-26T03:41:30;1.90;99.90
18297;DHT22;18066;52.106;5.534;2023-01-26T03:44:14;1.80;99.90
18297;DHT22;18066;52.106;5.534;2023-01-26T03:46:59;1.80;99.90
18297;DHT22;18066;52.106;5.534;2023-01-26T03:49:44;1.80;99.90
18297;DHT22;18066;52.106;5.534;2023-01-26T03:52:30;1.90;99.90
18297;DHT22;18066;52.106;5.534;2023-01-26T03:55:14;1.90;99.90
18297;DHT22;18066;52.106;5.534;2023-01-26T03:57:59;2.00;99.90
18297;DHT22;18066;52.106;5.534;2023-01-26T04:00:26;2.00;99.90
18297;DHT22;18066;52.106;5.534;2023-01-26T04:02:54;2.10;99.90
18297;DHT22;18066;52.106;5.534;2023-01-26T04:05:38;2.10;99.90
18297;DHT22;18066;52.106;5.534;2023-01-26T04:08:22;2.10;99.90
18297;DHT22;18066;52.106;5.534;2023-01-26T04:10:49;2.10;99.90
18297;DHT22;18066;52.106;5.534;2023-01-26T04:13:17;2.10;99.90
18297;DHT22;18066;52.106;5.534;2023-01-26T04:16:01;2.20;99.90
18297;DHT22;18066;52.106;5.534;2023-01-26T04:18:47;2.30;99.90
18297;DHT22;18066;52.106;5.534;2023-01-26T04:21:31;2.30;99.90
18297;DHT22;18066;52.106;5.534;2023-01-26T04:24:00;2.30;99.90
18297;DHT22;18066;52.106;5.534;2023-01-26T04:26:35;2.30;99.90
18297;DHT22;18066;52.106;5.534;2023-01-26T04:29:03;2.30;99.90
18297;DHT22;18066;52.106;5.534;2023-01-26T04:31:30;2.20;99.90
18297;DHT22;18066;52.106;5.534;2023-01-26T04:33:59;2.10;99.90
18297;DHT22;18066;52.106;5.534;2023-01-26T04:36:27;2.10;99.90
18297;DHT22;18066;52.106;5.534;2023-01-26T04:38:54;2.20;99.90
18297;DHT22;18066;52.106;5.534;2023-01-26T04:41:21;2.30;99.90
18297;DHT22;18066;52.106;5.534;2023-01-26T04:43:48;2.30;99.90
18297;DHT22;18066;52.106;5.534;2023-01-26T04:46:15;2.30;99.90
18297;DHT22;18066;52.106;5.534;2023-01-26T04:48:42;2.20;99.90
18297;DHT22;18066;52.106;5.534;2023-01-26T04:51:12;2.20;99.90
18297;DHT22;18066;52.106;5.534;2023-01-26T04:53:39;2.20;99.90
18297;DHT22;18066;52.106;5.534;2023-01-26T04:56:07;2.20;99.90
18297;DHT22;18066;52.106;5.534;2023-01-26T04:58:34;2.20;99.90
18297;DHT22;18066;52.106;5.534;2023-01-26T05:01:01;2.20;99.90
18297;DHT22;18066;52.106;5.534;2023-01-26T05:03:28;2.20;99.90
18297;DHT22;18066;52.106;5.534;2023-01-26T05:05:54;2.20;99.90
18297;DHT22;18066;52.106;5.534;2023-01-26T05:08:23;2.20;99.90
18297;DHT22;18066;52.106;5.534;2023-01-26T05:10:49;2.20;99.90
18297;DHT22;18066;52.106;5.534;2023-01-26T05:13:17;2.20;99.90
18297;DHT22;18066;52.106;5.534;2023-01-26T05:15:44;2.20;99.90
18297;DHT22;18066;52.106;5.534;2023-01-26T05:18:11;2.30;99.90
18297;DHT22;18066;52.106;5.534;2023-01-26T05:20:37;2.30;99.90
18297;DHT22;18066;52.106;5.534;2023-01-26T05:23:04;2.60;99.90
18297;DHT22;18066;52.106;5.534;2023-01-26T05:25:32;2.50;99.90
18297;DHT22;18066;52.106;5.534;2023-01-26T05:27:59;2.60;99.90
18297;DHT22;18066;52.106;5.534;2023-01-26T05:30:26;2.70;99.90
18297;DHT22;18066;52.106;5.534;2023-01-26T05:32:53;2.70;99.90
18297;DHT22;18066;52.106;5.534;2023-01-26T05:35:20;2.80;99.90
18297;DHT22;18066;52.106;5.534;2023-01-26T05:37:47;2.80;99.90
18297;DHT22;18066;52.106;5.534;2023-01-26T05:40:13;2.90;99.90
18297;DHT22;18066;52.106;5.534;2023-01-26T05:42:42;3.00;99.90
18297;DHT22;18066;52.106;5.534;2023-01-26T05:45:09;3.00;99.90
18297;DHT22;18066;52.106;5.534;2023-01-26T05:47:37;3.00;99.90
18297;DHT22;18066;52.106;5.534;2023-01-26T05:50:04;3.20;99.90
18297;DHT22;18066;52.106;5.534;2023-01-26T05:52:31;3.10;99.90
18297;DHT22;18066;52.106;5.534;2023-01-26T05:54:58;3.00;99.90
18297;DHT22;18066;52.106;5.534;2023-01-26T05:57:25;3.20;99.90
18297;DHT22;18066;52.106;5.534;2023-01-26T05:59:53;3.20;99.90
18297;DHT22;18066;52.106;5.534;2023-01-26T06:02:20;3.30;99.90
18297;DHT22;18066;52.106;5.534;2023-01-26T06:04:47;3.30;99.90
18297;DHT22;18066;52.106;5.534;2023-01-26T06:07:14;3.30;99.90
18297;DHT22;18066;52.106;5.534;2023-01-26T06:09:41;3.30;99.90
18297;DHT22;18066;52.106;5.534;2023-01-26T06:12:14;3.30;99.90
18297;DHT22;18066;52.106;5.534;2023-01-26T06:14:41;3.30;99.90
18297;DHT22;18066;52.106;5.534;2023-01-26T06:17:10;3.30;99.90
18297;DHT22;18066;52.106;5.534;2023-01-26T06:19:37;3.50;99.90
18297;DHT22;18066;52.106;5.534;2023-01-26T06:22:06;3.30;99.90
18297;DHT22;18066;52.106;5.534;2023-01-26T06:24:33;3.30;99.90
18297;DHT22;18066;52.106;5.534;2023-01-26T06:27:00;3.30;99.90
18297;DHT22;18066;52.106;5.534;2023-01-26T06:29:28;3.30;99.90
18297;DHT22;18066;52.106;5.534;2023-01-26T06:31:55;3.30;99.90
18297;DHT22;18066;52.106;5.534;2023-01-26T06:34:23;3.30;99.90
18297;DHT22;18066;52.106;5.534;2023-01-26T06:36:50;3.20;99.90
18297;DHT22;18066;52.106;5.534;2023-01-26T06:39:17;3.30;99.90
18297;DHT22;18066;52.106;5.534;2023-01-26T06:41:43;3.30;99.90
18297;DHT22;18066;52.106;5.534;2023-01-26T06:44:10;3.30;99.90
18297;DHT22;18066;52.106;5.534;2023-01-26T06:46:38;3.30;99.90
18297;DHT22;18066;52.106;5.534;2023-01-26T06:49:05;3.30;99.90
18297;DHT22;18066;52.106;5.534;2023-01-26T06:51:51;3.40;99.90
18297;DHT22;18066;52.106;5.534;2023-01-26T06:54:18;3.40;99.90
18297;DHT22;18066;52.106;5.534;2023-01-26T06:56:45;3.50;99.90
18297;DHT22;18066;52.106;5.534;2023-01-26T06:59:12;3.50;99.90
18297;DHT22;18066;52.106;5.534;2023-01-26T07:01:41;3.50;99.90
18297;DHT22;18066;52.106;5.534;2023-01-26T07:04:09;3.50;99.90
18297;DHT22;18066;52.106;5.534;2023-01-26T07:06:36;3.50;99.90
18297;DHT22;18066;52.106;5.534;2023-01-26T07:09:04;3.50;99.90
18297;DHT22;18066;52.106;5.534;2023-01-26T07:11:31;3.50;99.90
18297;DHT22;18066;52.106;5.534;2023-01-26T07:13:58;3.50;99.90
18297;DHT22;18066;52.106;5.534;2023-01-26T07:16:25;3.50;99.90
18297;DHT22;18066;52.106;5.534;2023-01-26T07:18:52;3.40;99.90
18297;DHT22;18066;52.106;5.534;2023-01-26T07:21:20;3.50;99.90
18297;DHT22;18066;52.106;5.534;2023-01-26T07:23:47;3.60;99.90
18297;DHT22;18066;52.106;5.534;2023-01-26T07:26:16;3.50;99.90
18297;DHT22;18066;52.106;5.534;2023-01-26T07:28:42;3.60;99.90
18297;DHT22;18066;52.106;5.534;2023-01-26T07:31:10;3.60;99.90
18297;DHT22;18066;52.106;5.534;2023-01-26T07:33:37;3.70;99.90
18297;DHT22;18066;52.106;5.534;2023-01-26T07:36:05;3.70;99.90
18297;DHT22;18066;52.106;5.534;2023-01-26T07:38:32;3.80;99.90
18297;DHT22;18066;52.106;5.534;2023-01-26T07:41:04;3.80;99.90
18297;DHT22;18066;52.106;5.534;2023-01-26T07:43:34;3.90;99.90
18297;DHT22;18066;52.106;5.534;2023-01-26T07:46:01;4.00;99.90
18297;DHT22;18066;52.106;5.534;2023-01-26T07:48:28;4.00;99.90
18297;DHT22;18066;52.106;5.534;2023-01-26T07:50:57;4.00;99.90
18297;DHT22;18066;52.106;5.534;2023-01-26T07:53:24;4.00;99.90
18297;DHT22;18066;52.106;5.534;2023-01-26T07:55:54;4.00;99.90
18297;DHT22;18066;52.106;5.534;2023-01-26T07:58:20;4.00;99.90
18297;DHT22;18066;52.106;5.534;2023-01-26T08:00:49;4.00;99.90
18297;DHT22;18066;52.106;5.534;2023-01-26T08:03:15;4.00;99.90
18297;DHT22;18066;52.106;5.534;2023-01-26T08:05:42;3.90;99.90
18297;DHT22;18066;52.106;5.534;2023-01-26T08:08:09;3.90;99.90
18297;DHT22;18066;52.106;5.534;2023-01-26T08:10:36;4.00;99.90
18297;DHT22;18066;52.106;5.534;2023-01-26T08:13:02;4.00;99.90
18297;DHT22;18066;52.106;5.534;2023-01-26T08:15:29;4.00;99.90
18297;DHT22;18066;52.106;5.534;2023-01-26T08:17:57;4.00;99.90
18297;DHT22;18066;52.106;5.534;2023-01-26T08:20:28;4.00;99.90
18297;DHT22;18066;52.106;5.534;2023-01-26T08:22:55;4.00;99.90
18297;DHT22;18066;52.106;5.534;2023-01-26T08:25:21;4.00;99.90
18297;DHT22;18066;52.106;5.534;2023-01-26T08:27:48;4.00;99.90
18297;DHT22;18066;52.106;5.534;2023-01-26T08:30:16;4.10;99.90
18297;DHT22;18066;52.106;5.534;2023-01-26T08:32:43;4.00;99.90
18297;DHT22;18066;52.106;5.534;2023-01-26T08:35:11;4.00;99.90
18297;DHT22;18066;52.106;5.534;2023-01-26T08:37:38;4.00;99.90
18297;DHT22;18066;52.106;5.534;2023-01-26T08:40:06;4.20;99.90
18297;DHT22;18066;52.106;5.534;2023-01-26T08:42:33;4.10;99.90
18297;DHT22;18066;52.106;5.534;2023-01-26T08:45:00;4.20;99.90
18297;DHT22;18066;52.106;5.534;2023-01-26T08:47:27;4.20;99.90
18297;DHT22;18066;52.106;5.534;2023-01-26T08:49:53;4.30;99.90
18297;DHT22;18066;52.106;5.534;2023-01-26T08:52:21;4.30;99.90
18297;DHT22;18066;52.106;5.534;2023-01-26T08:54:48;4.30;99.90
18297;DHT22;18066;52.106;5.534;2023-01-26T08:57:15;4.40;99.90
18297;DHT22;18066;52.106;5.534;2023-01-26T08:59:42;4.40;99.90
18297;DHT22;18066;52.106;5.534;2023-01-26T09:02:09;4.40;99.90
18297;DHT22;18066;52.106;5.534;2023-01-26T09:04:36;4.40;99.90
18297;DHT22;18066;52.106;5.534;2023-01-26T09:07:03;4.40;99.90
18297;DHT22;18066;52.106;5.534;2023-01-26T09:09:31;4.50;99.90
18297;DHT22;18066;52.106;5.534;2023-01-26T09:11:58;4.50;99.90
18297;DHT22;18066;52.106;5.534;2023-01-26T09:14:25;4.60;99.90
18297;DHT22;18066;52.106;5.534;2023-01-26T09:16:53;4.70;99.90
18297;DHT22;18066;52.106;5.534;2023-01-26T09:19:19;4.80;99.90
18297;DHT22;18066;52.106;5.534;2023-01-26T09:21:46;4.80;99.90
18297;DHT22;18066;52.106;5.534;2023-01-26T09:24:17;4.90;99.90
18297;DHT22;18066;52.106;5.534;2023-01-26T09:26:45;5.00;99.90
18297;DHT22;18066;52.106;5.534;2023-01-26T09:29:12;5.10;99.90
18297;DHT22;18066;52.106;5.534;2023-01-26T09:31:38;5.20;99.90
18297;DHT22;18066;52.106;5.534;2023-01-26T09:34:06;5.30;99.90
18297;DHT22;18066;52.106;5.534;2023-01-26T09:36:33;5.30;99.90
18297;DHT22;18066;52.106;5.534;2023-01-26T09:38:59;5.30;99.90
18297;DHT22;18066;52.106;5.534;2023-01-26T09:41:42;5.30;99.90
18297;DHT22;18066;52.106;5.534;2023-01-26T09:44:17;5.40;99.90
18297;DHT22;18066;52.106;5.534;2023-01-26T09:46:54;5.40;99.90
18297;DHT22;18066;52.106;5.534;2023-01-26T09:49:27;5.60;99.90
18297;DHT22;18066;52.106;5.534;2023-01-26T09:52:03;5.70;99.90
18297;DHT22;18066;52.106;5.534;2023-01-26T09:54:34;5.80;99.90
18297;DHT22;18066;52.106;5.534;2023-01-26T09:57:10;5.90;99.90
18297;DHT22;18066;52.106;5.534;2023-01-26T09:59:43;6.10;99.90
18297;DHT22;18066;52.106;5.534;2023-01-26T10:02:22;6.20;99.90
18297;DHT22;18066;52.106;5.534;2023-01-26T10:04:55;6.20;99.90
18297;DHT22;18066;52.106;5.534;2023-01-26T10:07:23;6.20;99.90
18297;DHT22;18066;52.106;5.534;2023-01-26T10:09:51;6.20;99.90
18297;DHT22;18066;52.106;5.534;2023-01-26T10:12:22;6.20;99.90
18297;DHT22;18066;52.106;5.534;2023-01-26T10:14:53;6.00;99.90
18297;DHT22;18066;52.106;5.534;2023-01-26T10:17:27;6.00;99.90
18297;DHT22;18066;52.106;5.534;2023-01-26T10:20:00;5.90;99.90
18297;DHT22;18066;52.106;5.534;2023-01-26T10:22:34;5.90;99.90
18297;DHT22;18066;52.106;5.534;2023-01-26T10:25:02;6.00;99.90
18297;DHT22;18066;52.106;5.534;2023-01-26T10:27:36;6.00;99.90
18297;DHT22;18066;52.106;5.534;2023-01-26T10:30:07;6.00;99.90
18297;DHT22;18066;52.106;5.534;2023-01-26T10:32:39;6.00;99.90
18297;DHT22;18066;52.106;5.534;2023-01-26T10:35:14;6.00;99.90
18297;DHT22;18066;52.106;5.534;2023-01-26T10:37:41;6.00;99.90
18297;DHT22;18066;52.106;5.534;2023-01-26T10:40:09;6.00;99.90
18297;DHT22;18066;52.106;5.534;2023-01-26T10:42:37;6.10;99.90
18297;DHT22;18066;52.106;5.534;2023-01-26T10:45:23;6.20;99.90
18297;DHT22;18066;52.106;5.534;2023-01-26T10:48:02;6.30;99.90
18297;DHT22;18066;52.106;5.534;2023-01-26T10:50:29;6.30;99.90
18297;DHT22;18066;52.106;5.534;2023-01-26T10:52:58;6.50;99.90
18297;DHT22;18066;52.106;5.534;2023-01-26T10:55:26;6.40;99.90
18297;DHT22;18066;52.106;5.534;2023-01-26T10:57:53;6.40;99.90
18297;DHT22;18066;52.106;5.534;2023-01-26T11:00:25;6.50;99.90
18297;DHT22;18066;52.106;5.534;2023-01-26T11:02:57;6.60;99.90
18297;DHT22;18066;52.106;5.534;2023-01-26T11:05:27;6.80;99.90
18297;DHT22;18066;52.106;5.534;2023-01-26T11:07:55;7.00;99.90
18297;DHT22;18066;52.106;5.534;2023-01-26T11:10:28;7.00;99.90
18297;DHT22;18066;52.106;5.534;2023-01-26T11:13:13;7.30;99.90
18297;DHT22;18066;52.106;5.534;2023-01-26T11:15:43;7.50;99.90
18297;DHT22;18066;52.106;5.534;2023-01-26T11:18:32;7.60;99.90
18297;DHT22;18066;52.106;5.534;2023-01-26T11:21:06;7.70;99.90
18297;DHT22;18066;52.106;5.534;2023-01-26T11:23:50;7.80;99.90
18297;DHT22;18066;52.106;5.534;2023-01-26T11:26:32;7.80;99.90
18297;DHT22;18066;52.106;5.534;2023-01-26T11:29:36;7.80;99.90
18297;DHT22;18066;52.106;5.534;2023-01-26T11:32:12;7.80;99.90
18297;DHT22;18066;52.106;5.534;2023-01-26T11:34:49;7.80;99.90
18297;DHT22;18066;52.106;5.534;2023-01-26T11:37:38;7.80;99.90
18297;DHT22;18066;52.106;5.534;2023-01-26T11:40:23;7.70;99.90
18297;DHT22;18066;52.106;5.534;2023-01-26T11:43:14;7.70;99.90
18297;DHT22;18066;52.106;5.534;2023-01-26T11:45:56;7.60;99.90
18297;DHT22;18066;52.106;5.534;2023-01-26T11:48:36;7.70;99.90
18297;DHT22;18066;52.106;5.534;2023-01-26T11:51:10;7.70;99.90
18297;DHT22;18066;52.106;5.534;2023-01-26T11:56:38;7.50;99.90
18297;DHT22;18066;52.106;5.534;2023-01-26T11:59:11;7.70;99.90
18297;DHT22;18066;52.106;5.534;2023-01-26T12:01:43;7.80;99.90
18297;DHT22;18066;52.106;5.534;2023-01-26T12:04:18;7.90;99.90
18297;DHT22;18066;52.106;5.534;2023-01-26T12:06:47;8.00;99.90
18297;DHT22;18066;52.106;5.534;2023-01-26T12:09:21;8.00;99.90
18297;DHT22;18066;52.106;5.534;2023-01-26T12:11:54;8.10;99.90
18297;DHT22;18066;52.106;5.534;2023-01-26T12:14:24;8.30;99.90
18297;DHT22;18066;52.106;5.534;2023-01-26T12:17:01;8.30;99.90
18297;DHT22;18066;52.106;5.534;2023-01-26T12:19:44;8.50;99.90
18297;DHT22;18066;52.106;5.534;2023-01-26T12:22:18;8.40;99.90
18297;DHT22;18066;52.106;5.534;2023-01-26T12:24:51;8.50;99.90
18297;DHT22;18066;52.106;5.534;2023-01-26T12:27:24;8.50;99.90
18297;DHT22;18066;52.106;5.534;2023-01-26T12:29:58;8.60;99.90
18297;DHT22;18066;52.106;5.534;2023-01-26T12:32:27;8.70;99.90
18297;DHT22;18066;52.106;5.534;2023-01-26T12:34:56;8.60;99.90
18297;DHT22;18066;52.106;5.534;2023-01-26T12:37:43;8.60;99.90
18297;DHT22;18066;52.106;5.534;2023-01-26T12:40:24;8.60;99.90
18297;DHT22;18066;52.106;5.534;2023-01-26T12:43:01;8.60;99.90
18297;DHT22;18066;52.106;5.534;2023-01-26T12:45:34;8.60;99.90
18297;DHT22;18066;52.106;5.534;2023-01-26T12:48:09;8.60;99.90
18297;DHT22;18066;52.106;5.534;2023-01-26T12:50:43;8.60;99.90
18297;DHT22;18066;52.106;5.534;2023-01-26T12:53:15;8.60;99.90
18297;DHT22;18066;52.106;5.534;2023-01-26T12:55:46;8.60;99.90
18297;DHT22;18066;52.106;5.534;2023-01-26T12:58:16;8.50;99.90
18297;DHT22;18066;52.106;5.534;2023-01-26T13:00:51;8.30;99.90
18297;DHT22;18066;52.106;5.534;2023-01-26T13:03:21;8.20;99.90
18297;DHT22;18066;52.106;5.534;2023-01-26T13:05:58;8.00;99.90
18297;DHT22;18066;52.106;5.534;2023-01-26T13:11:45;8.00;99.90
18297;DHT22;18066;52.106;5.534;2023-01-26T13:17:58;8.10;99.90
18297;DHT22;18066;52.106;5.534;2023-01-26T13:20:44;8.10;99.90
18297;DHT22;18066;52.106;5.534;2023-01-26T13:23:40;8.20;99.90
18297;DHT22;18066;52.106;5.534;2023-01-26T13:29:30;8.30;99.90
18297;DHT22;18066;52.106;5.534;2023-01-26T13:32:00;8.20;99.90
18297;DHT22;18066;52.106;5.534;2023-01-26T13:34:31;8.30;99.90
18297;DHT22;18066;52.106;5.534;2023-01-26T13:37:06;8.30;99.90
18297;DHT22;18066;52.106;5.534;2023-01-26T13:39:38;8.40;99.90
18297;DHT22;18066;52.106;5.534;2023-01-26T13:42:26;8.50;99.90
18297;DHT22;18066;52.106;5.534;2023-01-26T13:44:57;8.60;99.90
18297;DHT22;18066;52.106;5.534;2023-01-26T13:47:32;8.70;99.90
18297;DHT22;18066;52.106;5.534;2023-01-26T13:50:00;8.60;99.90
18297;DHT22;18066;52.106;5.534;2023-01-26T13:52:27;8.60;99.90
18297;DHT22;18066;52.106;5.534;2023-01-26T13:54:55;8.60;99.90
18297;DHT22;18066;52.106;5.534;2023-01-26T13:57:24;8.90;99.90
18297;DHT22;18066;52.106;5.534;2023-01-26T13:59:53;8.70;99.90
18297;DHT22;18066;52.106;5.534;2023-01-26T14:02:23;8.70;99.90
18297;DHT22;18066;52.106;5.534;2023-01-26T14:04:51;8.70;99.90
18297;DHT22;18066;52.106;5.534;2023-01-26T14:07:23;8.70;99.90
18297;DHT22;18066;52.106;5.534;2023-01-26T14:09:52;8.70;99.90
18297;DHT22;18066;52.106;5.534;2023-01-26T14:12:22;8.70;99.90
18297;DHT22;18066;52.106;5.534;2023-01-26T14:14:52;8.60;99.90
18297;DHT22;18066;52.106;5.534;2023-01-26T14:17:28;8.60;99.90
18297;DHT22;18066;52.106;5.534;2023-01-26T14:19:55;8.60;99.90
18297;DHT22;18066;52.106;5.534;2023-01-26T14:22:23;8.60;99.90
18297;DHT22;18066;52.106;5.534;2023-01-26T14:24:51;8.60;99.90
18297;DHT22;18066;52.106;5.534;2023-01-26T14:27:30;8.60;99.90
18297;DHT22;18066;52.106;5.534;2023-01-26T14:29:58;8.60;99.90
18297;DHT22;18066;52.106;5.534;2023-01-26T14:32:25;8.60;99.90
18297;DHT22;18066;52.106;5.534;2023-01-26T14:34:55;8.60;99.90
18297;DHT22;18066;52.106;5.534;2023-01-26T14:37:23;8.60;99.90
18297;DHT22;18066;52.106;5.534;2023-01-26T14:40:08;8.60;99.90
18297;DHT22;18066;52.106;5.534;2023-01-26T14:42:38;8.60;99.90
18297;DHT22;18066;52.106;5.534;2023-01-26T14:45:10;8.50;99.90
18297;DHT22;18066;52.106;5.534;2023-01-26T14:47:37;8.30;99.90
18297;DHT22;18066;52.106;5.534;2023-01-26T14:50:10;8.30;99.90
18297;DHT22;18066;52.106;5.534;2023-01-26T14:52:43;8.30;99.90
18297;DHT22;18066;52.106;5.534;2023-01-26T14:55:15;8.20;99.90
18297;DHT22;18066;52.106;5.534;2023-01-26T14:57:44;8.20;99.90
18297;DHT22;18066;52.106;5.534;2023-01-26T15:00:22;8.20;99.90
18297;DHT22;18066;52.106;5.534;2023-01-26T15:02:52;8.10;99.90
18297;DHT22;18066;52.106;5.534;2023-01-26T15:05:21;8.10;99.90
18297;DHT22;18066;52.106;5.534;2023-01-26T15:07:50;8.00;99.90
18297;DHT22;18066;52.106;5.534;2023-01-26T15:10:34;8.00;99.90
18297;DHT22;18066;52.106;5.534;2023-01-26T15:13:06;8.00;99.90
18297;DHT22;18066;52.106;5.534;2023-01-26T15:15:35;8.00;99.90
18297;DHT22;18066;52.106;5.534;2023-01-26T15:18:04;8.00;99.90
18297;DHT22;18066;52.106;5.534;2023-01-26T15:20:43;8.00;99.90
18297;DHT22;18066;52.106;5.534;2023-01-26T15:23:27;7.90;99.90
18297;DHT22;18066;52.106;5.534;2023-01-26T15:25:55;7.90;99.90
18297;DHT22;18066;52.106;5.534;2023-01-26T15:28:31;7.90;99.90
18297;DHT22;18066;52.106;5.534;2023-01-26T15:30:58;7.90;99.90
18297;DHT22;18066;52.106;5.534;2023-01-26T15:33:46;7.90;99.90
18297;DHT22;18066;52.106;5.534;2023-01-26T15:36:26;7.80;99.90
18297;DHT22;18066;52.106;5.534;2023-01-26T15:38:58;7.90;99.90
18297;DHT22;18066;52.106;5.534;2023-01-26T15:41:26;7.80;99.90
18297;DHT22;18066;52.106;5.534;2023-01-26T15:43:55;7.80;99.90
18297;DHT22;18066;52.106;5.534;2023-01-26T15:46:22;7.70;99.90
18297;DHT22;18066;52.106;5.534;2023-01-26T15:48:49;7.70;99.90
18297;DHT22;18066;52.106;5.534;2023-01-26T15:51:16;7.70;99.90
18297;DHT22;18066;52.106;5.534;2023-01-26T15:53:43;7.60;99.90
18297;DHT22;18066;52.106;5.534;2023-01-26T15:56:12;7.70;99.90
18297;DHT22;18066;52.106;5.534;2023-01-26T15:58:39;7.70;99.90
18297;DHT22;18066;52.106;5.534;2023-01-26T16:01:11;7.80;99.90
18297;DHT22;18066;52.106;5.534;2023-01-26T16:03:39;7.70;99.90
18297;DHT22;18066;52.106;5.534;2023-01-26T16:06:07;7.70;99.90
18297;DHT22;18066;52.106;5.534;2023-01-26T16:08:39;7.60;99.90
18297;DHT22;18066;52.106;5.534;2023-01-26T16:11:09;7.50;99.90
18297;DHT22;18066;52.106;5.534;2023-01-26T16:13:37;7.40;99.90
18297;DHT22;18066;52.106;5.534;2023-01-26T16:16:07;7.40;99.90
18297;DHT22;18066;52.106;5.534;2023-01-26T16:18:35;7.40;99.90
18297;DHT22;18066;52.106;5.534;2023-01-26T16:21:12;7.30;99.90